Time;durP1;ratioP1;P1;durP2;ratioP2;P2;SDS_P1;SDS_P2;PMS_P1;PMS_P2;Temp;Humidity;BMP_temperature;BMP_pressure;BME280_temperature;BME280_humidity;BME280_pressure;Samples;Min_cycle;Max_cycle;Signal;HPM_P1;HPM_P2
2023/01/17 00:17:10;;;;;;;1.08;0.30;;;;;;;;;;20908567;28;20106;-71
2023/01/17 01:39:01;;;;;;;1.85;0.10;;;;;;;;;;21002041;28;20064;-66
2023/01/17 01:49:07;;;;;;;0.95;0.10;;;;;;;;;;21000833;28;20041;-67
2023/01/17 01:59:10;;;;;;;0.28;0.10;;;;;;;;;;21000728;28;20070;-68
2023/01/17 02:09:13;;;;;;;0.63;0.20;;;;;;;;;;20999398;28;20052;-68
2023/01/17 02:19:42;;;;;;;2.47;0.77;;;;;;;;;;20998643;28;20048;-68
2023/01/17 02:29:57;;;;;;;2.53;0.30;;;;;;;;;;21003845;28;20048;-66
2023/01/17 02:40:27;;;;;;;1.25;0.20;;;;;;;;;;20996131;28;20106;-69
2023/01/17 02:50:42;;;;;;;0.52;0.22;;;;;;;;;;20905003;28;20128;-69
2023/01/17 03:00:54;;;;;;;0.95;0.10;;;;;;;;;;20905453;28;20051;-69
2023/01/17 03:11:07;;;;;;;2.05;0.32;;;;;;;;;;20904337;28;20136;-68
2023/01/17 03:21:20;;;;;;;1.27;0.20;;;;;;;;;;20928217;28;20049;-71
2023/01/17 03:31:35;;;;;;;1.20;0.10;;;;;;;;;;20994666;28;20049;-71
2023/01/17 03:41:43;;;;;;;0.82;0.15;;;;;;;;;;20994072;28;20052;-70
2023/01/17 03:51:44;;;;;;;0.65;0.10;;;;;;;;;;21003612;28;20178;-70
2023/01/17 04:01:47;;;;;;;0.65;0.15;;;;;;;;;;21011006;28;20049;-70
2023/01/17 04:11:52;;;;;;;0.98;0.40;;;;;;;;;;21008225;28;20044;-73
2023/01/17 04:22:05;;;;;;;0.80;0.10;;;;;;;;;;21007277;28;20056;-71
2023/01/17 04:32:28;;;;;;;0.45;0.20;;;;;;;;;;21007869;28;20448;-71
2023/01/17 04:42:46;;;;;;;1.52;0.40;;;;;;;;;;21005951;28;20061;-72
2023/01/17 04:53:02;;;;;;;0.28;0.00;;;;;;;;;;21006737;28;20087;-71
2023/01/17 05:03:04;;;;;;;0.85;0.30;;;;;;;;;;21004311;28;20058;-71
2023/01/17 05:13:06;;;;;;;0.43;0.10;;;;;;;;;;21004365;28;20123;-71
2023/01/17 05:23:08;;;;;;;2.30;1.25;;;;;;;;;;21003061;28;20056;-72
2023/01/17 05:33:10;;;;;;;0.90;0.10;;;;;;;;;;21003186;28;20161;-70
2023/01/17 05:43:11;;;;;;;0.30;0.10;;;;;;;;;;21000651;28;20056;-69
2023/01/17 05:53:15;;;;;;;0.60;0.13;;;;;;;;;;20999842;28;20049;-72
2023/01/17 06:03:17;;;;;;;0.28;0.20;;;;;;;;;;20999703;28;20144;-71
2023/01/17 06:13:20;;;;;;;0.40;0.20;;;;;;;;;;20999460;28;20044;-72
2023/01/17 06:23:23;;;;;;;0.25;0.10;;;;;;;;;;20999079;28;20182;-73
2023/01/17 06:33:25;;;;;;;0.30;0.00;;;;;;;;;;20997565;28;20051;-72
2023/01/17 06:43:31;;;;;;;0.47;0.10;;;;;;;;;;20996753;28;20052;-71
2023/01/17 06:53:34;;;;;;;0.20;0.00;;;;;;;;;;20997343;28;20451;-71
2023/01/17 07:03:37;;;;;;;0.40;0.10;;;;;;;;;;20995934;28;20079;-71
2023/01/17 07:13:39;;;;;;;2.03;0.20;;;;;;;;;;20995408;28;20052;-70
2023/01/17 07:23:42;;;;;;;2.05;0.20;;;;;;;;;;20999343;28;20055;-77
2023/01/17 07:33:44;;;;;;;0.30;0.10;;;;;;;;;;21013183;28;20048;-70
2023/01/17 07:43:46;;;;;;;4.07;0.75;;;;;;;;;;21011539;28;20092;-74
2023/01/17 07:53:48;;;;;;;4.97;0.73;;;;;;;;;;21011035;28;20114;-71
2023/01/17 08:03:53;;;;;;;8.52;0.68;;;;;;;;;;21010033;28;20509;-72
2023/01/17 08:13:58;;;;;;;6.45;0.80;;;;;;;;;;21007806;28;20496;-71
2023/01/17 08:24:01;;;;;;;7.60;1.30;;;;;;;;;;21007715;28;20199;-74
2023/01/17 08:34:03;;;;;;;1.88;0.52;;;;;;;;;;21009800;28;20089;-63
2023/01/17 08:44:05;;;;;;;4.47;0.70;;;;;;;;;;21007576;28;20063;-62
2023/01/17 08:54:08;;;;;;;4.32;0.80;;;;;;;;;;21006663;28;20040;-63
2023/01/17 09:04:10;;;;;;;4.38;0.60;;;;;;;;;;21005700;28;20416;-64
2023/01/17 09:14:14;;;;;;;3.45;0.40;;;;;;;;;;21003852;28;20048;-62
2023/01/17 09:24:16;;;;;;;3.97;0.60;;;;;;;;;;21002199;28;20094;-63
2023/01/17 09:34:19;;;;;;;1.95;0.50;;;;;;;;;;21003150;28;20052;-69
2023/01/17 09:44:39;;;;;;;3.70;0.85;;;;;;;;;;21001945;28;20056;-73
2023/01/17 09:54:42;;;;;;;4.80;0.88;;;;;;;;;;20999959;28;20044;-68
2023/01/17 10:04:54;;;;;;;4.03;1.20;;;;;;;;;;21000215;28;20083;-66
2023/01/17 10:14:56;;;;;;;3.53;0.63;;;;;;;;;;21000134;28;20131;-62
2023/01/17 10:25:16;;;;;;;3.17;1.02;;;;;;;;;;20998327;28;20421;-70
2023/01/17 10:35:26;;;;;;;4.63;0.90;;;;;;;;;;20998394;28;20067;-69
2023/01/17 10:45:29;;;;;;;14.38;3.42;;;;;;;;;;20997218;28;20433;-63
2023/01/17 10:55:33;;;;;;;4.75;0.80;;;;;;;;;;20995497;28;20057;-68
2023/01/17 11:05:35;;;;;;;3.25;0.95;;;;;;;;;;20997216;28;20449;-67
2023/01/17 11:15:38;;;;;;;12.70;1.40;;;;;;;;;;20997416;28;20041;-63
2023/01/17 11:25:40;;;;;;;6.25;1.00;;;;;;;;;;20996562;28;20063;-62
2023/01/17 11:35:44;;;;;;;7.28;0.60;;;;;;;;;;20993877;28;20048;-62
2023/01/17 11:45:59;;;;;;;4.53;0.70;;;;;;;;;;20993878;28;20175;-64
2023/01/17 11:56:04;;;;;;;10.13;1.67;;;;;;;;;;20994434;28;20473;-73
2023/01/17 12:06:16;;;;;;;3.03;0.98;;;;;;;;;;20992896;28;20090;-65
2023/01/17 12:16:28;;;;;;;8.82;2.88;;;;;;;;;;21004167;28;20123;-75
2023/01/17 12:26:35;;;;;;;2.53;0.90;;;;;;;;;;21008192;28;20141;-73
2023/01/17 12:36:47;;;;;;;3.03;0.40;;;;;;;;;;21004482;28;20352;-64
2023/01/17 12:47:03;;;;;;;3.35;0.77;;;;;;;;;;21004939;28;20135;-69
2023/01/17 12:57:24;;;;;;;1.70;0.80;;;;;;;;;;21004412;28;20044;-71
2023/01/17 13:07:29;;;;;;;3.63;0.60;;;;;;;;;;21004722;28;20568;-71
2023/01/17 13:17:38;;;;;;;5.07;0.93;;;;;;;;;;21004239;28;20059;-72
2023/01/17 13:27:45;;;;;;;3.72;0.73;;;;;;;;;;21003196;28;20056;-70
2023/01/17 13:38:03;;;;;;;11.60;4.65;;;;;;;;;;21001132;28;20573;-68
2023/01/17 13:48:13;;;;;;;1.70;0.70;;;;;;;;;;21001150;28;20052;-70
2023/01/17 13:58:28;;;;;;;1.77;0.52;;;;;;;;;;21000819;28;20451;-68
2023/01/17 14:08:30;;;;;;;2.95;0.70;;;;;;;;;;21002312;28;20404;-71
2023/01/17 14:18:32;;;;;;;2.13;0.90;;;;;;;;;;20997887;28;20044;-70
2023/01/17 14:28:34;;;;;;;4.20;0.70;;;;;;;;;;20997752;28;20055;-69
2023/01/17 14:38:41;;;;;;;2.00;0.60;;;;;;;;;;20996845;28;20385;-68
2023/01/17 14:48:44;;;;;;;3.35;0.50;;;;;;;;;;20997664;28;20049;-70
2023/01/17 14:58:46;;;;;;;2.63;0.60;;;;;;;;;;20996623;28;20052;-72
2023/01/17 15:08:48;;;;;;;2.13;0.43;;;;;;;;;;20996103;28;20072;-71
2023/01/17 15:18:51;;;;;;;1.30;0.30;;;;;;;;;;20990591;28;20135;-69
2023/01/17 15:28:58;;;;;;;0.90;0.40;;;;;;;;;;20988913;28;20063;-68
2023/01/17 15:39:02;;;;;;;1.15;0.15;;;;;;;;;;20991383;28;20087;-66
2023/01/17 15:49:27;;;;;;;2.28;0.20;;;;;;;;;;21002241;28;20040;-64
2023/01/17 15:59:33;;;;;;;4.47;0.60;;;;;;;;;;21007801;28;20052;-63
2023/01/17 16:09:40;;;;;;;3.80;0.95;;;;;;;;;;21005888;28;20044;-66
2023/01/17 16:19:42;;;;;;;0.98;0.28;;;;;;;;;;21005276;28;20048;-69
2023/01/17 16:29:45;;;;;;;1.50;0.35;;;;;;;;;;21004434;28;20051;-68
2023/01/17 16:39:47;;;;;;;1.67;0.40;;;;;;;;;;21003581;28;20121;-71
2023/01/17 16:49:49;;;;;;;3.08;1.30;;;;;;;;;;21002611;28;20040;-69
2023/01/17 16:59:52;;;;;;;0.70;0.47;;;;;;;;;;21000615;28;20064;-65
2023/01/17 17:09:54;;;;;;;0.50;0.30;;;;;;;;;;21002009;28;20052;-64
2023/01/17 17:19:56;;;;;;;1.05;0.20;;;;;;;;;;20999989;28;20056;-62
2023/01/17 17:29:58;;;;;;;3.53;0.85;;;;;;;;;;20998612;28;20438;-63
2023/01/17 17:40:00;;;;;;;0.93;0.30;;;;;;;;;;20998064;28;20496;-65
2023/01/17 17:50:03;;;;;;;2.20;0.45;;;;;;;;;;20997827;28;20048;-65
2023/01/17 18:00:05;;;;;;;3.40;0.40;;;;;;;;;;21000326;28;20055;-67
2023/01/17 18:10:07;;;;;;;1.00;0.40;;;;;;;;;;20999749;28;20049;-69
2023/01/17 18:20:10;;;;;;;7.25;3.03;;;;;;;;;;21001814;28;20138;-67
2023/01/17 18:30:12;;;;;;;3.45;1.30;;;;;;;;;;21004856;28;20063;-67
2023/01/17 18:40:14;;;;;;;1.70;0.50;;;;;;;;;;21005862;28;20420;-65
2023/01/17 18:50:16;;;;;;;1.70;0.40;;;;;;;;;;20997635;28;20056;-66
2023/01/17 19:00:18;;;;;;;3.00;0.50;;;;;;;;;;20994755;28;20052;-67
2023/01/17 19:10:20;;;;;;;2.80;0.60;;;;;;;;;;20996573;28;20068;-64
2023/01/17 19:20:22;;;;;;;3.15;0.45;;;;;;;;;;21000495;28;20144;-65
2023/01/17 19:30:24;;;;;;;1.27;0.50;;;;;;;;;;21012571;28;20055;-68
2023/01/17 19:40:26;;;;;;;3.08;0.40;;;;;;;;;;21011942;28;20060;-65
2023/01/17 19:50:28;;;;;;;3.13;1.20;;;;;;;;;;21012649;28;20044;-66
2023/01/17 20:00:34;;;;;;;1.75;0.50;;;;;;;;;;21008801;28;20048;-65
2023/01/17 20:10:36;;;;;;;1.92;0.57;;;;;;;;;;21008922;28;20044;-66
2023/01/17 20:20:40;;;;;;;1.23;0.30;;;;;;;;;;21008050;28;20048;-64
2023/01/17 20:30:44;;;;;;;8.52;3.85;;;;;;;;;;21007944;28;20072;-66
2023/01/17 20:40:53;;;;;;;2.58;0.80;;;;;;;;;;21006797;28;20063;-68
2023/01/17 20:50:55;;;;;;;2.67;1.17;;;;;;;;;;21006545;28;20041;-65
2023/01/17 21:00:57;;;;;;;1.38;0.55;;;;;;;;;;21005872;28;20412;-62
2023/01/17 21:11:00;;;;;;;1.38;0.70;;;;;;;;;;21004575;28;20049;-66
2023/01/17 21:21:04;;;;;;;3.30;1.15;;;;;;;;;;21001681;28;20045;-67
2023/01/17 21:31:27;;;;;;;1.20;0.75;;;;;;;;;;21002983;28;20098;-62
2023/01/17 21:41:31;;;;;;;1.45;0.50;;;;;;;;;;21001001;28;20505;-63
2023/01/17 22:01:54;;;;;;;1.45;0.30;;;;;;;;;;20999966;28;20048;-66
2023/01/17 22:11:56;;;;;;;2.47;0.90;;;;;;;;;;20999649;28;20048;-64
2023/01/17 22:21:58;;;;;;;1.98;0.60;;;;;;;;;;20998217;28;20056;-64
2023/01/17 22:32:00;;;;;;;4.80;1.90;;;;;;;;;;20996214;28;20068;-65
2023/01/17 22:42:02;;;;;;;4.10;1.50;;;;;;;;;;20997094;28;20063;-64
2023/01/17 22:52:04;;;;;;;4.22;1.65;;;;;;;;;;20996346;28;20135;-66
2023/01/17 23:02:06;;;;;;;2.60;1.08;;;;;;;;;;20996717;28;20056;-66
2023/01/17 23:12:09;;;;;;;3.33;0.82;;;;;;;;;;20995958;28;20049;-65
2023/01/17 23:22:18;;;;;;;1.95;0.90;;;;;;;;;;20995362;28;20059;-62
2023/01/17 23:32:20;;;;;;;1.30;0.35;;;;;;;;;;20995191;28;20048;-65
2023/01/17 23:52:45;;;;;;;4.70;1.30;;;;;;;;;;20995221;28;20045;-69
